Time;durP1;ratioP1;P1;durP2;ratioP2;P2;SDS_P1;SDS_P2;PMS_P1;PMS_P2;Temp;Humidity;BMP_temperature;BMP_pressure;BME280_temperature;BME280_humidity;BME280_pressure;Samples;Min_cycle;Max_cycle;Signal;HPM_P1;HPM_P2
2020/12/24 05:17:49;;;;;;;1.50;1.00;;;1.60;99.90;;;;;;5962536;23;20024;31
2020/12/24 05:20:14;;;;;;;2.28;1.20;;;1.50;99.90;;;;;;4894915;29;20082;-71
2020/12/24 05:22:40;;;;;;;1.65;1.20;;;1.50;99.90;;;;;;4899615;29;20060;-72
2020/12/24 05:25:10;;;;;;;1.42;1.20;;;1.50;99.90;;;;;;4898951;29;20029;-71
2020/12/24 05:27:40;;;;;;;1.05;0.95;;;1.40;99.90;;;;;;4899086;29;20047;-71
2020/12/24 05:30:06;;;;;;;5.32;1.27;;;1.40;99.90;;;;;;4898923;29;20032;-78
2020/12/24 05:32:33;;;;;;;1.27;1.17;;;1.40;99.90;;;;;;4899127;29;20059;-80
2020/12/24 05:35:11;;;;;;;2.22;1.40;;;1.40;99.90;;;;;;4898871;29;20285;-75
2020/12/24 05:37:37;;;;;;;2.05;1.38;;;1.40;99.90;;;;;;4898984;29;20503;-73
2020/12/24 05:40:25;;;;;;;1.88;1.40;;;1.40;99.90;;;;;;4898893;29;20025;-74
2020/12/24 05:42:59;;;;;;;2.03;1.15;;;1.50;99.90;;;;;;4898716;29;20052;-76
2020/12/24 05:45:32;;;;;;;1.25;1.00;;;1.90;99.90;;;;;;4898516;29;20428;-74
2020/12/24 05:48:07;;;;;;;2.85;1.40;;;1.90;99.90;;;;;;4898693;29;20032;-76
2020/12/24 05:50:34;;;;;;;1.55;1.10;;;1.70;99.90;;;;;;4898179;29;20025;-74
2020/12/24 05:53:19;;;;;;;1.63;1.00;;;1.60;99.90;;;;;;4897931;29;20043;-75
2020/12/24 05:55:45;;;;;;;1.23;0.77;;;1.60;99.90;;;;;;4898230;29;20384;-73
2020/12/24 05:58:11;;;;;;;1.17;0.90;;;1.50;99.90;;;;;;4898139;29;20027;-73
2020/12/24 06:00:40;;;;;;;0.90;0.90;;;1.50;99.90;;;;;;4896842;29;20116;-73
2020/12/24 06:03:14;;;;;;;1.15;1.00;;;1.50;99.90;;;;;;4898063;29;20021;-72
2020/12/24 06:05:53;;;;;;;2.35;1.20;;;1.50;99.90;;;;;;4897280;29;20536;-72
2020/12/24 06:08:26;;;;;;;1.23;1.00;;;1.40;99.90;;;;;;4896026;29;20032;-73
2020/12/24 06:11:02;;;;;;;0.93;0.93;;;1.50;99.90;;;;;;4898022;29;20031;-74
2020/12/24 06:13:39;;;;;;;1.70;1.17;;;1.50;99.90;;;;;;4897832;29;20032;-72
2020/12/24 06:16:09;;;;;;;1.10;1.10;;;1.50;99.90;;;;;;4897653;29;20025;-70
2020/12/24 06:18:40;;;;;;;2.30;1.15;;;1.50;99.90;;;;;;4894751;29;20056;-70
2020/12/24 06:21:14;;;;;;;1.30;1.00;;;1.40;99.90;;;;;;4896454;29;20465;-73
2020/12/24 06:23:47;;;;;;;1.30;1.20;;;1.40;99.90;;;;;;4898073;29;20040;-73
2020/12/24 06:26:20;;;;;;;2.53;0.90;;;1.40;99.90;;;;;;4898264;29;20048;-72
2020/12/24 06:28:48;;;;;;;1.17;1.08;;;1.40;99.90;;;;;;4898163;29;20024;-77
2020/12/24 06:31:17;;;;;;;1.65;1.10;;;1.40;99.90;;;;;;4898201;29;20029;-77
2020/12/24 06:33:42;;;;;;;1.33;1.20;;;1.40;99.90;;;;;;4897735;29;20020;-78
2020/12/24 06:36:31;;;;;;;1.20;1.00;;;1.40;99.90;;;;;;4897780;29;20484;-77
2020/12/24 06:38:57;;;;;;;1.77;1.20;;;1.40;99.90;;;;;;4897875;29;20039;-77
2020/12/24 06:41:26;;;;;;;1.25;1.15;;;1.50;99.90;;;;;;4897758;29;20441;-77
2020/12/24 06:43:52;;;;;;;1.63;1.25;;;1.40;99.90;;;;;;4897534;29;20540;-78
2020/12/24 06:46:18;;;;;;;1.35;1.10;;;1.40;99.90;;;;;;4897833;29;20045;-77
2020/12/24 06:48:59;;;;;;;2.13;1.20;;;1.40;99.90;;;;;;4897347;29;20060;-76
2020/12/24 06:51:24;;;;;;;1.75;1.05;;;1.40;99.90;;;;;;4897366;29;20103;-74
2020/12/24 06:53:50;;;;;;;1.10;0.90;;;1.40;99.90;;;;;;4897720;29;20033;-71
2020/12/24 06:56:16;;;;;;;3.25;1.10;;;1.50;99.90;;;;;;4897471;29;20073;-72
2020/12/24 06:58:51;;;;;;;0.77;0.77;;;1.40;99.90;;;;;;4897423;29;20389;-71
2020/12/24 07:01:23;;;;;;;1.23;0.95;;;1.30;99.90;;;;;;4897241;29;20088;-72
2020/12/24 07:03:50;;;;;;;1.30;1.15;;;1.40;99.90;;;;;;4897272;29;20212;-82
2020/12/24 07:06:45;;;;;;;1.15;1.05;;;1.40;99.90;;;;;;4897572;29;20025;-78
2020/12/24 07:09:20;;;;;;;1.17;0.90;;;2.00;99.90;;;;;;4897219;29;20043;-70
2020/12/24 07:11:47;;;;;;;0.70;0.70;;;2.60;99.90;;;;;;4895533;29;20025;-84
2020/12/24 07:14:29;;;;;;;1.48;0.98;;;2.20;99.90;;;;;;4897222;29;20032;-80
2020/12/24 07:16:56;;;;;;;1.55;1.05;;;1.80;99.90;;;;;;4894109;29;20456;-80
2020/12/24 07:19:23;;;;;;;1.05;0.95;;;1.60;99.90;;;;;;4910322;29;20063;-81
2020/12/24 07:21:53;;;;;;;1.23;0.98;;;1.50;99.90;;;;;;4915189;29;20075;-81
2020/12/24 07:24:30;;;;;;;0.93;0.93;;;1.40;99.90;;;;;;4915365;29;20032;-77
2020/12/24 07:27:01;;;;;;;1.55;1.00;;;1.30;99.90;;;;;;4915793;29;20111;-76
2020/12/24 07:29:28;;;;;;;1.30;1.20;;;1.40;99.90;;;;;;4915451;29;20487;-73
2020/12/24 07:31:56;;;;;;;1.48;1.10;;;1.40;99.90;;;;;;4915567;29;20036;-73
2020/12/24 07:34:36;;;;;;;1.02;1.00;;;1.30;99.90;;;;;;4915593;29;20032;-73
2020/12/24 07:37:08;;;;;;;1.50;1.05;;;1.30;99.90;;;;;;4915535;29;20032;-73
2020/12/24 07:39:33;;;;;;;0.98;0.98;;;1.30;99.90;;;;;;4915215;29;20028;-74
2020/12/24 07:41:59;;;;;;;1.45;1.13;;;1.30;99.90;;;;;;4915757;29;20503;-73
2020/12/24 07:44:25;;;;;;;1.80;1.25;;;1.30;99.90;;;;;;4913761;29;20107;-73
2020/12/24 07:46:59;;;;;;;1.38;1.27;;;1.30;99.90;;;;;;4915696;29;20491;-73
2020/12/24 07:49:25;;;;;;;1.95;1.50;;;1.20;99.90;;;;;;4915140;29;20028;-73
2020/12/24 07:51:55;;;;;;;2.15;1.40;;;1.20;99.90;;;;;;4914487;29;20115;-74
2020/12/24 07:54:26;;;;;;;1.58;1.33;;;1.20;99.90;;;;;;4915490;29;20215;-73
2020/12/24 07:56:52;;;;;;;;;;;1.20;99.90;;;;;;4898922;29;20057;-73
2020/12/24 07:59:20;;;;;;;1.65;1.55;;;1.10;99.90;;;;;;4895686;29;19912;-73
2020/12/24 08:01:45;;;;;;;3.33;1.70;;;1.10;99.90;;;;;;4895445;29;20028;-73
2020/12/24 08:04:11;;;;;;;2.60;1.75;;;1.10;99.90;;;;;;4895743;29;20039;-78
2020/12/24 08:06:37;;;;;;;2.03;1.70;;;1.10;99.90;;;;;;4892234;29;20036;-79
2020/12/24 08:09:16;;;;;;;2.15;1.73;;;1.20;99.90;;;;;;4892887;29;20025;-78
2020/12/24 08:11:50;;;;;;;2.53;1.67;;;1.20;99.90;;;;;;4887292;29;20434;-81
2020/12/24 08:14:23;;;;;;;2.45;1.83;;;1.20;99.90;;;;;;4887942;29;20025;-79
2020/12/24 08:16:51;;;;;;;4.10;2.60;;;1.20;99.90;;;;;;4883156;29;20061;-79
2020/12/24 08:19:25;;;;;;;6.93;3.50;;;1.20;99.90;;;;;;4892552;29;20520;-79
2020/12/24 08:21:59;;;;;;;8.20;3.78;;;1.20;99.90;;;;;;4881826;29;20393;-82
2020/12/24 08:24:26;;;;;;;8.35;3.88;;;1.20;99.90;;;;;;4878958;29;20485;-85
2020/12/24 08:26:52;;;;;;;4.78;2.80;;;1.20;99.90;;;;;;4880741;29;20037;-79
2020/12/24 08:29:19;;;;;;;5.15;3.00;;;1.20;99.90;;;;;;4883584;29;20024;-77
2020/12/24 08:31:46;;;;;;;4.30;2.65;;;1.20;99.90;;;;;;4889467;29;20638;-80
2020/12/24 08:34:12;;;;;;;4.03;2.30;;;1.20;99.90;;;;;;4895486;29;20028;-78
2020/12/24 08:36:46;;;;;;;3.85;2.53;;;1.20;99.90;;;;;;4890601;29;20093;-80
2020/12/24 08:39:15;;;;;;;3.10;2.72;;;1.20;99.90;;;;;;4890431;29;20037;-78
2020/12/24 08:41:55;;;;;;;6.97;3.05;;;1.20;99.90;;;;;;4903480;29;20128;-78
2020/12/24 08:44:22;;;;;;;4.07;3.13;;;1.20;99.90;;;;;;4894748;29;20636;-81
2020/12/24 08:47:08;;;;;;;4.95;2.88;;;1.20;99.90;;;;;;4886702;29;20120;-79
2020/12/24 08:49:45;;;;;;;3.85;2.78;;;1.30;99.90;;;;;;4886906;29;20050;-78
2020/12/24 08:52:20;;;;;;;5.32;3.03;;;1.20;99.90;;;;;;4896550;29;20496;-78
2020/12/24 08:55:09;;;;;;;4.90;2.95;;;1.20;99.90;;;;;;4892281;29;20135;-78
2020/12/24 08:57:36;;;;;;;5.70;3.00;;;1.20;99.90;;;;;;4893080;29;20108;-78
2020/12/24 09:00:12;;;;;;;4.43;2.47;;;1.20;99.90;;;;;;4885443;29;20107;-79
2020/12/24 09:02:38;;;;;;;4.85;3.13;;;1.20;99.90;;;;;;4885725;29;20097;-79
2020/12/24 09:05:05;;;;;;;6.28;3.00;;;1.20;99.90;;;;;;4893651;29;20024;-79
2020/12/24 09:07:44;;;;;;;3.38;2.70;;;1.20;99.90;;;;;;4889675;29;20036;-81
2020/12/24 09:10:15;;;;;;;4.72;2.58;;;1.20;99.90;;;;;;4893293;29;20021;-80
2020/12/24 09:12:43;;;;;;;4.20;2.53;;;1.20;99.90;;;;;;4892268;29;20563;-77
2020/12/24 09:15:13;;;;;;;5.47;3.00;;;1.20;99.90;;;;;;4898442;29;20029;-79
2020/12/24 09:17:48;;;;;;;2.95;2.42;;;1.20;99.90;;;;;;4902343;29;20115;-79
2020/12/24 09:20:19;;;;;;;2.85;2.25;;;1.30;99.90;;;;;;4883445;29;20044;-83
2020/12/24 09:22:53;;;;;;;3.30;2.42;;;1.20;99.90;;;;;;4894783;29;20040;-81
2020/12/24 09:25:39;;;;;;;3.70;2.10;;;1.20;99.90;;;;;;4896111;29;20148;-77
2020/12/24 09:28:17;;;;;;;3.22;2.05;;;1.40;99.90;;;;;;4887265;29;20039;-71
2020/12/24 09:30:42;;;;;;;2.75;1.88;;;1.40;99.90;;;;;;4887630;29;20029;-72
2020/12/24 09:33:08;;;;;;;3.38;2.47;;;1.30;99.90;;;;;;4898247;29;20032;-72
2020/12/24 09:35:34;;;;;;;3.92;2.17;;;1.20;99.90;;;;;;4892734;29;20067;-73
2020/12/24 09:38:00;;;;;;;3.40;2.30;;;1.10;99.90;;;;;;4890094;29;20452;-72
2020/12/24 09:40:25;;;;;;;3.03;2.15;;;1.00;99.90;;;;;;4895806;29;20119;-71
2020/12/24 09:42:52;;;;;;;2.63;1.98;;;1.00;99.90;;;;;;4897208;29;20067;-71
2020/12/24 09:45:18;;;;;;;3.55;2.47;;;1.10;99.90;;;;;;4897199;29;20077;-72
2020/12/24 09:47:45;;;;;;;2.90;2.13;;;1.10;99.90;;;;;;4894623;29;20080;-71
2020/12/24 09:50:11;;;;;;;2.70;2.10;;;1.10;99.90;;;;;;4897890;29;20024;-72
2020/12/24 09:52:38;;;;;;;1.80;1.25;;;1.10;99.90;;;;;;4897812;29;20024;-71
2020/12/24 09:55:04;;;;;;;2.47;1.80;;;1.10;99.90;;;;;;4898002;29;20028;-72
2020/12/24 09:57:32;;;;;;;2.25;1.77;;;1.00;99.90;;;;;;4897625;29;20032;-72
2020/12/24 09:59:59;;;;;;;2.65;2.00;;;0.90;99.90;;;;;;4897961;29;20020;-72
2020/12/24 10:02:26;;;;;;;3.33;2.35;;;0.90;99.90;;;;;;4897678;29;20083;-71
2020/12/24 10:04:55;;;;;;;4.03;2.20;;;1.00;99.90;;;;;;4897427;29;20371;-73
2020/12/24 10:07:24;;;;;;;3.00;1.77;;;1.00;99.90;;;;;;4897650;29;20031;-72
2020/12/24 10:09:51;;;;;;;2.20;1.55;;;1.00;99.90;;;;;;4892851;29;20343;-73
2020/12/24 10:12:23;;;;;;;1.75;1.50;;;1.10;99.90;;;;;;4888009;29;20047;-74
2020/12/24 10:14:50;;;;;;;3.38;2.17;;;1.10;99.90;;;;;;4896033;29;20643;-79
2020/12/24 10:17:16;;;;;;;2.22;1.60;;;1.10;99.90;;;;;;4897347;29;20066;-79
2020/12/24 10:19:45;;;;;;;2.95;1.92;;;1.80;99.90;;;;;;4897044;29;20080;-75
2020/12/24 10:22:12;;;;;;;3.90;1.88;;;2.40;99.90;;;;;;4896838;29;20036;-73
2020/12/24 10:24:40;;;;;;;3.35;2.15;;;3.00;99.90;;;;;;4897246;29;20032;-73
2020/12/24 10:27:06;;;;;;;2.13;1.90;;;3.00;99.90;;;;;;4897313;29;20473;-75
2020/12/24 10:29:32;;;;;;;2.38;2.00;;;3.40;99.90;;;;;;4897338;29;20024;-75
2020/12/24 10:31:58;;;;;;;1.65;1.50;;;3.20;99.90;;;;;;4883907;29;20434;-75
2020/12/24 10:34:23;;;;;;;2.22;1.70;;;2.70;99.90;;;;;;4882486;29;20025;-75
2020/12/24 10:36:49;;;;;;;2.63;1.73;;;2.30;99.90;;;;;;4885695;29;20125;-75
2020/12/24 10:39:15;;;;;;;2.13;1.52;;;1.90;99.90;;;;;;4878422;29;20070;-75
2020/12/24 10:41:42;;;;;;;1.45;1.30;;;1.80;99.90;;;;;;4878041;29;20442;-75
2020/12/24 10:44:08;;;;;;;2.45;1.65;;;1.60;99.90;;;;;;4891044;29;20035;-75
2020/12/24 10:46:35;;;;;;;1.40;1.30;;;1.40;99.90;;;;;;4877857;29;20433;-75
2020/12/24 10:49:01;;;;;;;1.77;1.30;;;1.30;99.90;;;;;;4877466;29;20104;-75
2020/12/24 10:51:27;;;;;;;2.17;1.73;;;1.30;99.90;;;;;;4878286;29;20108;-75
2020/12/24 10:53:54;;;;;;;1.52;1.40;;;1.20;99.90;;;;;;4877800;29;20112;-75
2020/12/24 10:56:20;;;;;;;1.63;1.40;;;1.20;99.90;;;;;;4881944;29;20052;-75
2020/12/24 10:58:46;;;;;;;2.42;1.50;;;1.20;99.90;;;;;;4886610;29;20060;-75
2020/12/24 11:01:14;;;;;;;2.70;1.27;;;1.10;99.90;;;;;;4880041;29;20037;-75
2020/12/24 11:03:40;;;;;;;1.48;1.27;;;1.10;99.90;;;;;;4896327;29;20052;-75
2020/12/24 11:06:16;;;;;;;2.03;1.48;;;1.10;99.90;;;;;;4882134;29;20088;-75
2020/12/24 11:08:42;;;;;;;1.92;1.48;;;1.10;99.90;;;;;;4878007;29;20044;-75
2020/12/24 11:11:07;;;;;;;1.60;1.50;;;1.10;99.90;;;;;;4877555;29;20357;-75
2020/12/24 11:13:33;;;;;;;2.10;1.63;;;1.10;99.90;;;;;;4877708;29;20037;-75
2020/12/24 11:16:01;;;;;;;1.67;1.30;;;1.10;99.90;;;;;;4877313;29;20062;-75
2020/12/24 11:18:27;;;;;;;1.35;1.10;;;1.10;99.90;;;;;;4890729;29;20385;-74
2020/12/24 11:20:55;;;;;;;1.88;1.40;;;1.10;99.90;;;;;;4877421;29;20093;-75
2020/12/24 11:23:21;;;;;;;1.63;1.45;;;1.10;99.90;;;;;;4877698;29;20477;-75
2020/12/24 11:25:47;;;;;;;1.50;1.23;;;1.10;99.90;;;;;;4881896;29;20072;-75
2020/12/24 11:28:12;;;;;;;1.42;1.33;;;1.10;99.90;;;;;;4886141;29;20033;-75
2020/12/24 11:30:38;;;;;;;1.85;1.20;;;1.10;99.90;;;;;;4890649;29;20032;-75
2020/12/24 11:33:04;;;;;;;2.17;1.40;;;1.00;99.90;;;;;;4877633;29;20587;-75
2020/12/24 11:35:30;;;;;;;1.40;1.30;;;1.00;99.90;;;;;;4877157;29;20033;-75
2020/12/24 11:37:55;;;;;;;2.10;1.35;;;1.10;99.90;;;;;;4877586;29;20048;-75
2020/12/24 11:40:21;;;;;;;1.63;1.50;;;1.10;99.90;;;;;;4877672;29;20116;-75
2020/12/24 11:42:47;;;;;;;1.42;1.33;;;1.10;99.90;;;;;;4877525;29;20111;-75
2020/12/24 11:45:13;;;;;;;1.42;1.10;;;1.10;99.90;;;;;;4887449;29;20032;-75
2020/12/24 11:47:39;;;;;;;1.27;1.10;;;1.10;99.90;;;;;;4879777;29;20025;-75
2020/12/24 11:50:05;;;;;;;1.52;1.27;;;1.10;99.90;;;;;;4877506;29;20496;-75
2020/12/24 11:52:37;;;;;;;1.23;1.10;;;1.10;99.90;;;;;;4877279;29;20485;-75
2020/12/24 11:55:06;;;;;;;1.17;1.08;;;1.10;99.90;;;;;;4883408;29;20389;-75
2020/12/24 11:57:32;;;;;;;2.63;2.15;;;1.10;99.90;;;;;;4882506;29;20053;-75
2020/12/24 11:59:58;;;;;;;7.13;3.35;;;1.10;99.90;;;;;;4886386;29;20560;-75
2020/12/24 12:02:24;;;;;;;16.83;7.93;;;1.10;99.90;;;;;;4887887;29;20059;-75
2020/12/24 12:04:50;;;;;;;26.15;12.85;;;1.10;99.90;;;;;;4893929;29;20021;-75
2020/12/24 12:07:16;;;;;;;11.50;5.53;;;1.10;99.90;;;;;;4880893;29;20393;-75
2020/12/24 12:09:41;;;;;;;8.23;4.60;;;1.10;99.90;;;;;;4894072;29;20036;-75
2020/12/24 12:12:07;;;;;;;3.40;2.35;;;1.10;99.90;;;;;;4889114;29;20032;-75
2020/12/24 12:14:33;;;;;;;2.20;1.70;;;1.10;99.90;;;;;;4889537;29;20113;-75
2020/12/24 12:17:00;;;;;;;2.92;2.10;;;1.10;99.90;;;;;;4880557;29;20036;-75
2020/12/24 12:19:26;;;;;;;1.73;1.48;;;1.10;99.90;;;;;;4880524;29;20060;-75
2020/12/24 12:21:52;;;;;;;1.80;1.27;;;1.10;99.90;;;;;;4880569;29;20037;-75
2020/12/24 12:24:18;;;;;;;2.47;1.88;;;1.00;99.90;;;;;;4895167;29;20037;-75
2020/12/24 12:26:44;;;;;;;1.30;1.20;;;1.00;99.90;;;;;;4880390;29;20068;-75
2020/12/24 12:29:10;;;;;;;1.50;1.35;;;1.00;99.90;;;;;;4880486;29;20100;-75
2020/12/24 12:31:37;;;;;;;3.95;2.03;;;1.00;99.90;;;;;;4880701;29;20033;-75
2020/12/24 12:34:03;;;;;;;2.00;1.70;;;1.00;99.90;;;;;;4880528;29;20029;-75
2020/12/24 12:36:29;;;;;;;1.80;1.55;;;1.00;99.90;;;;;;4880594;29;20112;-75
2020/12/24 12:38:55;;;;;;;1.45;1.30;;;1.10;99.90;;;;;;4880141;29;20132;-75
2020/12/24 12:41:23;;;;;;;1.67;1.50;;;1.00;99.90;;;;;;4880203;29;20041;-75
2020/12/24 12:43:49;;;;;;;1.40;1.30;;;1.00;99.90;;;;;;4880152;29;20469;-75
2020/12/24 12:46:28;;;;;;;1.40;1.20;;;1.00;99.90;;;;;;4879948;29;20539;-75
2020/12/24 12:48:55;;;;;;;1.45;1.35;;;1.00;99.90;;;;;;4880055;29;20128;-75
2020/12/24 12:51:21;;;;;;;3.10;1.70;;;0.90;99.90;;;;;;4880249;29;20017;-75
2020/12/24 12:53:47;;;;;;;1.40;1.30;;;0.90;99.90;;;;;;4891255;29;20059;-75
2020/12/24 12:56:13;;;;;;;1.20;1.10;;;0.90;99.90;;;;;;4882276;29;20033;-75
2020/12/24 12:58:41;;;;;;;1.60;1.30;;;0.90;99.90;;;;;;4880150;29;20025;-75
2020/12/24 13:01:08;;;;;;;2.85;1.63;;;0.90;99.90;;;;;;4893170;29;20033;-75
2020/12/24 13:03:35;;;;;;;1.40;1.30;;;0.90;99.90;;;;;;4880230;29;20024;-75
2020/12/24 13:06:01;;;;;;;1.90;1.55;;;0.80;99.90;;;;;;4879443;29;20489;-75
2020/12/24 13:08:26;;;;;;;1.10;1.00;;;0.90;99.90;;;;;;4879881;29;20044;-75
2020/12/24 13:10:52;;;;;;;1.52;1.42;;;0.90;99.90;;;;;;4890515;29;20112;-75
2020/12/24 13:13:18;;;;;;;1.17;1.08;;;0.90;99.90;;;;;;4897090;29;20044;-75
2020/12/24 13:15:44;;;;;;;2.17;1.52;;;0.90;99.90;;;;;;4892121;29;20033;-75
2020/12/24 13:18:11;;;;;;;2.35;1.88;;;1.00;99.90;;;;;;4879658;29;20092;-80
2020/12/24 13:20:37;;;;;;;1.95;1.70;;;1.70;99.90;;;;;;4892759;29;20105;-84
2020/12/24 13:23:03;;;;;;;1.45;1.33;;;1.70;99.90;;;;;;4879925;29;20033;-83
2020/12/24 13:25:30;;;;;;;1.65;1.45;;;1.60;99.90;;;;;;4881720;29;20037;-82
2020/12/24 13:27:55;;;;;;;1.10;1.00;;;1.50;99.90;;;;;;4904341;29;20033;-82
2020/12/24 13:30:22;;;;;;;1.05;1.00;;;1.50;99.90;;;;;;4879416;29;20025;-83
2020/12/24 13:32:48;;;;;;;1.95;1.40;;;1.40;99.90;;;;;;4879646;29;20041;-83
2020/12/24 13:35:13;;;;;;;1.70;1.17;;;1.30;99.90;;;;;;4891725;29;20389;-83
2020/12/24 13:37:39;;;;;;;1.50;1.30;;;2.90;99.90;;;;;;4898185;29;20492;-80
2020/12/24 13:40:06;;;;;;;2.67;1.30;;;4.60;99.90;;;;;;4898088;29;20507;-79
2020/12/24 13:42:31;;;;;;;1.35;1.10;;;4.00;99.90;;;;;;4897809;29;20063;-75
2020/12/24 13:44:57;;;;;;;2.60;1.80;;;3.00;99.90;;;;;;4889726;29;20534;-76
2020/12/24 13:47:23;;;;;;;1.92;1.40;;;2.70;99.90;;;;;;4892932;29;20480;-76
2020/12/24 13:49:48;;;;;;;3.05;1.40;;;2.50;99.90;;;;;;4890726;29;20029;-75
2020/12/24 13:52:14;;;;;;;1.88;1.42;;;2.30;99.90;;;;;;4897768;29;20127;-77
2020/12/24 13:54:40;;;;;;;1.58;1.10;;;2.20;99.90;;;;;;4897697;29;20472;-73
2020/12/24 13:57:06;;;;;;;1.20;1.10;;;2.50;99.90;;;;;;4897087;29;20033;-72
2020/12/24 13:59:31;;;;;;;1.30;1.20;;;2.40;99.90;;;;;;4887606;29;20108;-73
2020/12/24 14:02:01;;;;;;;1.35;1.25;;;2.10;99.90;;;;;;4892031;29;20045;-74
2020/12/24 14:04:27;;;;;;;3.75;2.00;;;2.00;99.90;;;;;;4893991;29;20571;-76
2020/12/24 14:06:53;;;;;;;3.47;2.15;;;1.80;99.90;;;;;;4896896;29;20033;-75
2020/12/24 14:09:19;;;;;;;2.35;1.80;;;1.70;99.90;;;;;;4897024;29;20028;-77
2020/12/24 14:11:48;;;;;;;3.00;2.00;;;1.60;99.90;;;;;;4887350;29;20047;-76
2020/12/24 14:14:14;;;;;;;2.33;1.88;;;1.50;99.90;;;;;;4893585;29;20385;-76
2020/12/24 14:16:40;;;;;;;3.65;2.05;;;1.50;99.90;;;;;;4897349;29;20052;-75
2020/12/24 14:19:06;;;;;;;1.90;1.70;;;1.40;99.90;;;;;;4897041;29;20111;-74
2020/12/24 14:21:35;;;;;;;3.22;1.60;;;1.40;99.90;;;;;;4896854;29;20059;-75
2020/12/24 14:24:01;;;;;;;2.38;1.90;;;1.40;99.90;;;;;;4893441;29;20049;-76
2020/12/24 14:26:29;;;;;;;3.17;1.70;;;1.30;99.90;;;;;;4891334;29;20128;-77
2020/12/24 14:28:56;;;;;;;2.53;1.70;;;1.30;99.90;;;;;;4891006;29;20149;-75
2020/12/24 14:31:21;;;;;;;2.03;1.52;;;1.30;99.90;;;;;;4897624;29;20104;-75
2020/12/24 14:33:47;;;;;;;1.55;1.45;;;1.30;99.90;;;;;;4897018;29;20386;-75
2020/12/24 14:36:17;;;;;;;2.63;1.70;;;1.20;99.90;;;;;;4896887;29;20068;-75
2020/12/24 14:38:44;;;;;;;3.03;1.67;;;1.20;99.90;;;;;;4897147;29;20092;-74
2020/12/24 14:41:10;;;;;;;3.47;2.08;;;1.20;99.90;;;;;;4891741;29;20030;-76
2020/12/24 14:43:37;;;;;;;3.08;1.80;;;1.10;99.90;;;;;;4889157;29;20035;-75
2020/12/24 14:46:07;;;;;;;4.32;2.20;;;1.10;99.90;;;;;;4896348;29;20025;-78
2020/12/24 14:48:33;;;;;;;1.95;1.45;;;1.20;99.90;;;;;;4896515;29;20065;-75
2020/12/24 14:51:00;;;;;;;2.05;1.60;;;1.20;99.90;;;;;;4896655;29;20488;-76
2020/12/24 14:53:26;;;;;;;2.92;1.60;;;1.10;99.90;;;;;;4896788;29;20040;-75
2020/12/24 14:55:51;;;;;;;2.25;1.40;;;1.00;99.90;;;;;;4895156;29;20036;-74
2020/12/24 14:58:17;;;;;;;1.50;1.33;;;1.00;99.90;;;;;;4896750;29;20080;-74
2020/12/24 15:00:43;;;;;;;1.60;1.45;;;1.00;99.90;;;;;;4896513;29;20167;-74
2020/12/24 15:03:09;;;;;;;2.42;1.42;;;1.00;99.90;;;;;;4896471;29;20438;-74
2020/12/24 15:05:41;;;;;;;3.00;1.50;;;1.00;99.90;;;;;;4896259;29;20047;-74
2020/12/24 15:08:08;;;;;;;2.33;1.67;;;0.80;99.90;;;;;;4896365;29;20392;-74
2020/12/24 15:10:35;;;;;;;1.85;1.30;;;0.80;99.90;;;;;;4896424;29;20029;-75
2020/12/24 15:13:01;;;;;;;1.80;1.45;;;0.80;99.90;;;;;;4896496;29;20028;-75
2020/12/24 15:15:27;;;;;;;1.73;1.30;;;0.80;99.90;;;;;;4896410;29;20492;-74
2020/12/24 15:17:52;;;;;;;1.27;1.05;;;0.80;99.90;;;;;;4910569;29;20067;-72
2020/12/24 15:20:18;;;;;;;1.52;1.17;;;0.80;99.90;;;;;;4896592;29;20037;-77
2020/12/24 15:22:44;;;;;;;1.73;1.08;;;0.80;99.90;;;;;;4910868;29;20033;-79
2020/12/24 15:25:09;;;;;;;0.90;0.90;;;0.80;99.90;;;;;;4896044;29;20029;-77
2020/12/24 15:27:35;;;;;;;1.30;1.20;;;0.80;99.90;;;;;;4910723;29;20047;-77
2020/12/24 15:30:01;;;;;;;1.73;1.40;;;0.70;99.90;;;;;;4896277;29;20067;-77
2020/12/24 15:32:27;;;;;;;1.33;1.17;;;0.70;99.90;;;;;;4883355;29;20028;-74
2020/12/24 15:34:52;;;;;;;1.77;1.27;;;0.70;99.90;;;;;;4895791;29;20434;-73
2020/12/24 15:37:18;;;;;;;13.13;6.50;;;0.70;99.90;;;;;;4896319;29;20106;-74
2020/12/24 15:39:46;;;;;;;1.40;1.30;;;0.80;99.90;;;;;;4896327;29;20032;-73
2020/12/24 15:42:12;;;;;;;2.45;1.25;;;0.70;99.90;;;;;;4895920;29;20044;-73
2020/12/24 15:44:38;;;;;;;1.45;0.90;;;0.60;99.90;;;;;;4896011;29;20021;-73
2020/12/24 15:47:08;;;;;;;1.20;0.98;;;0.60;99.90;;;;;;4896745;29;20060;-74
2020/12/24 15:49:34;;;;;;;2.33;2.13;;;0.60;99.90;;;;;;4883808;29;20105;-72
2020/12/24 15:52:01;;;;;;;1.25;1.05;;;0.60;99.90;;;;;;4888084;29;20029;-75
2020/12/24 15:54:31;;;;;;;1.48;1.38;;;0.60;99.90;;;;;;4893308;29;20029;-73
2020/12/24 15:56:57;;;;;;;1.52;1.33;;;0.60;99.90;;;;;;4896426;29;20032;-73
2020/12/24 15:59:27;;;;;;;2.00;1.60;;;0.60;99.90;;;;;;4896064;29;20029;-73
2020/12/24 16:01:53;;;;;;;3.03;1.90;;;0.60;99.90;;;;;;4895512;29;20040;-72
2020/12/24 16:04:20;;;;;;;3.92;2.10;;;0.60;99.90;;;;;;4895413;29;20040;-72
2020/12/24 16:06:46;;;;;;;3.72;2.30;;;0.70;99.90;;;;;;4895663;29;20057;-73
2020/12/24 16:09:13;;;;;;;3.13;1.70;;;0.70;99.90;;;;;;4895345;29;20497;-73
2020/12/24 16:11:39;;;;;;;4.05;2.13;;;0.70;99.90;;;;;;4882362;29;20100;-73
2020/12/24 16:14:06;;;;;;;2.88;1.17;;;0.70;99.90;;;;;;4895112;29;20124;-73
2020/12/24 16:16:32;;;;;;;1.63;1.45;;;0.60;99.90;;;;;;4891753;29;20032;-73
2020/12/24 16:18:58;;;;;;;2.45;1.40;;;0.60;99.90;;;;;;4894694;29;20056;-75
2020/12/24 16:21:25;;;;;;;3.25;1.48;;;0.60;99.90;;;;;;4895761;29;20493;-75
2020/12/24 16:23:51;;;;;;;1.60;1.40;;;0.60;99.90;;;;;;4895544;29;20021;-76
2020/12/24 16:26:19;;;;;;;1.23;1.02;;;0.50;99.90;;;;;;4895558;29;20032;-76
2020/12/24 16:28:46;;;;;;;1.45;1.35;;;0.50;99.90;;;;;;4894342;29;20029;-73
2020/12/24 16:31:12;;;;;;;1.67;1.23;;;0.50;99.90;;;;;;4876926;29;20049;-75
2020/12/24 16:33:38;;;;;;;2.92;1.15;;;0.50;99.90;;;;;;4887096;29;20056;-75
2020/12/24 16:36:04;;;;;;;1.38;1.27;;;0.40;99.90;;;;;;4892674;29;20395;-73
2020/12/24 16:38:29;;;;;;;2.22;1.40;;;0.40;99.90;;;;;;4889516;29;20030;-73
2020/12/24 16:40:55;;;;;;;1.35;1.20;;;0.40;99.90;;;;;;4893413;29;20044;-73
2020/12/24 16:43:21;;;;;;;2.35;1.25;;;0.40;99.90;;;;;;4895362;29;20051;-73
2020/12/24 16:45:47;;;;;;;1.38;1.27;;;0.40;99.90;;;;;;4897568;29;20052;-71
2020/12/24 16:48:14;;;;;;;6.18;2.28;;;0.40;99.90;;;;;;4898490;29;20031;-72
2020/12/24 16:50:45;;;;;;;1.52;1.42;;;0.40;99.90;;;;;;4899254;29;20028;-75
2020/12/24 16:53:10;;;;;;;2.75;1.60;;;0.70;99.90;;;;;;4892410;29;20118;-75
2020/12/24 16:55:37;;;;;;;2.65;1.65;;;0.90;99.90;;;;;;4899169;29;20040;-76
2020/12/24 16:58:02;;;;;;;2.42;1.50;;;0.80;99.90;;;;;;4899047;29;20028;-76
2020/12/24 17:00:28;;;;;;;2.92;1.60;;;0.70;99.90;;;;;;4899125;29;20021;-76
2020/12/24 17:02:54;;;;;;;2.75;1.50;;;0.60;99.90;;;;;;4898936;29;20048;-76
2020/12/24 17:05:20;;;;;;;2.25;1.55;;;0.50;99.90;;;;;;4899190;29;20033;-76
2020/12/24 17:07:46;;;;;;;1.48;1.38;;;0.50;99.90;;;;;;4913076;29;20322;-76
2020/12/24 17:10:12;;;;;;;1.75;1.52;;;0.50;99.90;;;;;;4898761;29;20112;-77
2020/12/24 17:12:38;;;;;;;2.60;1.30;;;0.50;99.90;;;;;;4898923;29;20180;-75
2020/12/24 17:15:04;;;;;;;3.03;1.50;;;0.40;99.90;;;;;;4890984;29;20020;-76
2020/12/24 17:17:30;;;;;;;2.38;1.90;;;0.40;99.90;;;;;;4888303;29;20469;-76
2020/12/24 17:19:55;;;;;;;2.35;1.60;;;0.40;99.90;;;;;;4888701;29;20056;-76
2020/12/24 17:22:21;;;;;;;3.65;1.95;;;0.60;99.90;;;;;;4898787;29;20032;-74
2020/12/24 17:24:47;;;;;;;2.17;1.35;;;0.60;99.90;;;;;;4898704;29;20481;-73
2020/12/24 17:27:13;;;;;;;3.45;1.60;;;0.60;99.90;;;;;;4887508;29;20056;-75
2020/12/24 17:29:38;;;;;;;2.75;1.30;;;0.60;99.90;;;;;;4898690;29;20095;-77
2020/12/24 17:32:04;;;;;;;2.10;1.70;;;0.50;99.90;;;;;;4898226;29;20032;-78
2020/12/24 17:34:30;;;;;;;1.75;1.30;;;0.50;99.90;;;;;;4898527;29;20031;-76
2020/12/24 17:36:55;;;;;;;3.42;1.33;;;0.50;99.90;;;;;;4898216;29;20051;-76
2020/12/24 17:39:21;;;;;;;1.70;1.35;;;0.50;99.90;;;;;;4892686;29;20085;-75
2020/12/24 17:41:47;;;;;;;1.80;1.30;;;0.40;99.90;;;;;;4893050;29;20043;-76
2020/12/24 17:44:13;;;;;;;1.10;1.00;;;0.40;99.90;;;;;;4889196;29;20052;-76
2020/12/24 17:46:41;;;;;;;1.35;1.10;;;0.40;99.90;;;;;;4897194;29;20512;-76
2020/12/24 17:49:10;;;;;;;1.30;1.20;;;0.40;99.90;;;;;;4895692;29;20112;-76
2020/12/24 17:51:37;;;;;;;1.65;1.20;;;0.40;99.90;;;;;;4893392;29;20033;-75
2020/12/24 17:54:03;;;;;;;0.85;0.85;;;0.30;99.90;;;;;;4897773;29;20511;-74
2020/12/24 17:56:29;;;;;;;1.30;1.20;;;0.30;99.90;;;;;;4897434;29;20116;-74
2020/12/24 17:58:55;;;;;;;1.80;1.15;;;0.30;99.90;;;;;;4897710;29;20107;-73
2020/12/24 18:01:22;;;;;;;2.08;1.20;;;0.40;99.90;;;;;;4894632;29;20021;-73
2020/12/24 18:03:48;;;;;;;1.73;1.20;;;0.40;99.90;;;;;;4895214;29;20040;-75
2020/12/24 18:06:17;;;;;;;4.28;2.05;;;0.40;99.90;;;;;;4897716;29;20481;-74
2020/12/24 18:08:43;;;;;;;2.22;1.70;;;0.40;99.90;;;;;;4911299;29;20037;-70
2020/12/24 18:11:10;;;;;;;3.30;2.22;;;0.40;99.90;;;;;;4884801;29;20028;-71
2020/12/24 18:13:36;;;;;;;5.70;3.17;;;0.30;99.90;;;;;;4892410;29;20492;-70
2020/12/24 18:16:02;;;;;;;3.72;2.65;;;0.30;99.90;;;;;;4897747;29;20426;-71
2020/12/24 18:18:28;;;;;;;2.30;1.50;;;0.40;99.90;;;;;;4897456;29;20100;-71